Time;durP1;ratioP1;P1;durP2;ratioP2;P2;SDS_P1;SDS_P2;PMS_P1;PMS_P2;Temp;Humidity;BMP_temperature;BMP_pressure;BME280_temperature;BME280_humidity;BME280_pressure;Samples;Min_cycle;Max_cycle;Signal;HPM_P1;HPM_P2
2024/01/09 00:00:42;;;;;;;40.80;17.92;;;-7.50;99.90;;;;;;5022872;28;20071;-62
2024/01/09 00:03:08;;;;;;;38.58;15.88;;;-7.50;99.90;;;;;;5021543;28;20028;-63
2024/01/09 00:05:34;;;;;;;31.80;15.07;;;-7.50;99.90;;;;;;5020473;28;20053;-63
2024/01/09 00:07:59;;;;;;;33.22;16.05;;;-7.50;99.90;;;;;;5022342;28;20026;-62
2024/01/09 00:10:25;;;;;;;26.60;13.82;;;-7.60;99.90;;;;;;5021463;28;20026;-62
2024/01/09 00:12:51;;;;;;;31.60;14.82;;;-7.60;99.90;;;;;;5021679;28;20079;-62
2024/01/09 00:15:17;;;;;;;38.58;16.80;;;-7.60;99.90;;;;;;5017681;28;20025;-63
2024/01/09 00:17:42;;;;;;;36.53;16.75;;;-7.60;99.90;;;;;;5019543;28;20398;-62
2024/01/09 00:20:09;;;;;;;35.55;15.45;;;-7.60;99.90;;;;;;5018633;28;20030;-63
2024/01/09 00:22:34;;;;;;;29.83;14.25;;;-7.60;99.90;;;;;;5019367;28;20052;-65
2024/01/09 00:25:00;;;;;;;31.73;14.40;;;-7.60;99.90;;;;;;5023248;28;20482;-62
2024/01/09 00:27:25;;;;;;;28.50;12.95;;;-7.70;99.90;;;;;;5019601;28;20172;-62
2024/01/09 00:29:51;;;;;;;26.70;14.98;;;-7.80;99.90;;;;;;5020592;28;20514;-63
2024/01/09 00:32:17;;;;;;;26.42;13.02;;;-7.90;99.90;;;;;;5024207;28;20022;-62
2024/01/09 00:34:42;;;;;;;33.45;14.65;;;-7.90;99.90;;;;;;5019539;28;20025;-64
2024/01/09 00:37:08;;;;;;;33.83;15.32;;;-7.90;99.90;;;;;;5019601;28;20164;-63
2024/01/09 00:39:34;;;;;;;32.70;13.73;;;-7.90;99.90;;;;;;5020243;28;20493;-63
2024/01/09 00:41:59;;;;;;;28.30;13.18;;;-7.90;99.90;;;;;;5017250;28;20124;-63
2024/01/09 00:44:25;;;;;;;32.50;14.80;;;-8.00;99.90;;;;;;5019582;28;20048;-63
2024/01/09 00:46:50;;;;;;;31.45;14.00;;;-8.00;99.90;;;;;;5021307;28;20393;-63
2024/01/09 00:49:16;;;;;;;27.95;14.07;;;-8.00;99.90;;;;;;5022104;28;20041;-62
2024/01/09 00:51:42;;;;;;;26.38;13.75;;;-8.00;99.90;;;;;;5018601;28;20045;-63
2024/01/09 00:54:08;;;;;;;29.70;14.32;;;-8.10;99.90;;;;;;5020599;28;20029;-62
2024/01/09 00:56:34;;;;;;;33.20;15.57;;;-8.10;99.90;;;;;;5019451;28;20041;-62
2024/01/09 00:59:00;;;;;;;32.53;15.45;;;-8.10;99.90;;;;;;5022521;28;20041;-63
2024/01/09 01:01:25;;;;;;;29.33;14.38;;;-8.10;99.90;;;;;;5023268;28;20088;-63
2024/01/09 01:03:51;;;;;;;35.10;15.57;;;-8.10;99.90;;;;;;5016999;28;20441;-62
2024/01/09 01:06:16;;;;;;;34.45;15.93;;;-8.10;99.90;;;;;;5020174;28;20050;-62
2024/01/09 01:08:42;;;;;;;29.70;15.35;;;-8.20;99.90;;;;;;5016697;28;20030;-63
2024/01/09 01:11:08;;;;;;;39.83;16.42;;;-8.20;99.90;;;;;;5019615;28;20117;-64
2024/01/09 01:13:34;;;;;;;33.60;15.00;;;-8.20;99.90;;;;;;5020899;28;20018;-62
2024/01/09 01:16:00;;;;;;;31.70;15.45;;;-8.30;99.90;;;;;;5020335;28;20071;-62
2024/01/09 01:18:25;;;;;;;28.02;14.63;;;-8.30;99.90;;;;;;5019314;28;20028;-62
2024/01/09 01:20:51;;;;;;;28.48;14.57;;;-8.30;99.90;;;;;;5020312;28;20034;-63
2024/01/09 01:23:17;;;;;;;35.72;16.60;;;-8.30;99.90;;;;;;5021556;28;20041;-62
2024/01/09 01:25:42;;;;;;;37.88;16.75;;;-8.30;99.90;;;;;;5019264;28;20042;-63
2024/01/09 01:28:08;;;;;;;37.15;16.27;;;-8.30;99.90;;;;;;5020713;28;20029;-63
2024/01/09 01:30:33;;;;;;;35.70;15.90;;;-8.30;99.90;;;;;;5021295;28;20029;-63
2024/01/09 01:32:59;;;;;;;31.42;13.77;;;-8.40;99.90;;;;;;5019872;28;20532;-63
2024/01/09 01:35:25;;;;;;;41.67;16.52;;;-8.40;99.90;;;;;;5019881;28;20053;-63
2024/01/09 01:37:51;;;;;;;32.35;14.68;;;-8.40;99.90;;;;;;5018953;28;20030;-63
2024/01/09 01:40:17;;;;;;;26.13;13.38;;;-8.40;99.90;;;;;;5017934;28;20034;-62
2024/01/09 01:42:43;;;;;;;32.33;15.80;;;-8.40;99.90;;;;;;5021347;28;20029;-63
2024/01/09 01:45:22;;;;;;;29.73;15.15;;;-8.40;99.90;;;;;;5018226;28;20041;-64
2024/01/09 01:47:48;;;;;;;28.73;14.27;;;-8.50;99.90;;;;;;5018482;28;20061;-64
2024/01/09 01:50:15;;;;;;;35.15;14.73;;;-8.50;99.90;;;;;;5020348;28;20439;-63
2024/01/09 01:52:46;;;;;;;29.08;13.82;;;-8.50;99.90;;;;;;5022923;28;20399;-63
2024/01/09 01:55:12;;;;;;;30.38;15.40;;;-8.50;99.90;;;;;;5018888;28;20079;-63
2024/01/09 01:57:40;;;;;;;34.47;14.88;;;-8.50;99.90;;;;;;5019352;28;20542;-63
2024/01/09 02:00:07;;;;;;;28.02;14.52;;;-8.40;99.90;;;;;;5021590;28;20139;-61
2024/01/09 02:02:35;;;;;;;26.75;13.45;;;-8.40;99.90;;;;;;5016331;28;20041;-62
2024/01/09 02:05:02;;;;;;;36.67;15.90;;;-8.40;99.90;;;;;;5020403;28;20701;-61
2024/01/09 02:07:31;;;;;;;29.23;14.90;;;-8.40;99.90;;;;;;5019854;28;20021;-62
2024/01/09 02:09:58;;;;;;;29.52;13.73;;;-8.40;99.90;;;;;;5021436;28;20108;-63
2024/01/09 02:12:23;;;;;;;32.63;14.40;;;-8.40;99.90;;;;;;5021957;28;20488;-63
2024/01/09 02:14:49;;;;;;;34.22;13.75;;;-8.50;99.90;;;;;;5020388;28;20042;-63
2024/01/09 02:17:15;;;;;;;27.35;13.65;;;-8.50;99.90;;;;;;5024061;28;20079;-62
2024/01/09 02:19:40;;;;;;;26.10;14.50;;;-8.50;99.90;;;;;;5015149;28;20029;-61
2024/01/09 02:22:06;;;;;;;49.80;18.77;;;-8.50;99.90;;;;;;5016026;28;20029;-62
2024/01/09 02:24:32;;;;;;;44.88;20.10;;;-8.50;99.90;;;;;;5020014;28;20032;-62
2024/01/09 02:27:20;;;;;;;41.65;16.98;;;-8.50;99.90;;;;;;5024196;28;20029;-63
2024/01/09 02:29:49;;;;;;;25.42;14.10;;;-8.60;99.90;;;;;;5024731;28;20025;-62
2024/01/09 02:32:20;;;;;;;33.45;14.35;;;-8.50;99.90;;;;;;5024571;28;20057;-62
2024/01/09 02:34:46;;;;;;;24.63;13.65;;;-8.50;99.90;;;;;;5027453;28;20022;-62
2024/01/09 02:37:12;;;;;;;38.15;16.25;;;-8.40;99.90;;;;;;5027011;28;20021;-62
2024/01/09 02:39:37;;;;;;;38.28;17.92;;;-8.30;99.90;;;;;;5024375;28;20084;-63
2024/01/09 02:42:03;;;;;;;46.53;16.98;;;-8.30;99.90;;;;;;5022703;28;20080;-62
2024/01/09 02:44:29;;;;;;;37.17;15.20;;;-8.30;99.90;;;;;;5023881;28;20061;-62
2024/01/09 02:46:55;;;;;;;27.65;13.75;;;-8.30;99.90;;;;;;5024437;28;20045;-62
2024/01/09 02:49:21;;;;;;;30.20;14.18;;;-8.30;99.90;;;;;;5024532;28;20068;-62
2024/01/09 02:51:46;;;;;;;33.90;14.35;;;-8.30;99.90;;;;;;5023967;28;20041;-62
2024/01/09 02:54:12;;;;;;;27.60;14.00;;;-8.30;99.90;;;;;;5026856;28;20557;-63
2024/01/09 02:56:38;;;;;;;30.85;14.68;;;-8.30;99.90;;;;;;5027013;28;20095;-62
2024/01/09 02:59:03;;;;;;;35.33;14.93;;;-8.30;99.90;;;;;;5025487;28;20112;-64
2024/01/09 03:01:29;;;;;;;30.90;14.23;;;-8.30;99.90;;;;;;5024876;28;20445;-63
2024/01/09 03:03:55;;;;;;;23.05;12.65;;;-8.20;99.90;;;;;;5027598;28;20029;-62
2024/01/09 03:06:20;;;;;;;43.17;18.42;;;-8.20;99.90;;;;;;5025308;28;20029;-61
2024/01/09 03:08:48;;;;;;;29.98;16.10;;;-8.10;99.90;;;;;;5026370;28;20077;-62
2024/01/09 03:11:14;;;;;;;34.03;15.43;;;-8.10;99.90;;;;;;5026522;28;20025;-63
2024/01/09 03:13:40;;;;;;;30.27;14.98;;;-8.00;99.90;;;;;;5026354;28;20026;-63
2024/01/09 03:16:13;;;;;;;28.63;13.75;;;-8.00;99.90;;;;;;5029171;28;20013;-63
2024/01/09 03:18:39;;;;;;;29.98;13.70;;;-8.00;99.90;;;;;;5028810;28;20084;-62
2024/01/09 03:21:05;;;;;;;27.50;12.95;;;-8.10;99.90;;;;;;5026042;28;20116;-62
2024/01/09 03:23:33;;;;;;;28.67;12.15;;;-8.20;99.90;;;;;;5024718;28;20121;-63
2024/01/09 03:25:59;;;;;;;26.42;12.77;;;-8.20;99.90;;;;;;5023563;28;20494;-63
2024/01/09 03:28:26;;;;;;;25.00;13.25;;;-8.30;99.90;;;;;;5025968;28;20037;-62
2024/01/09 03:30:52;;;;;;;29.88;12.68;;;-8.30;99.90;;;;;;5026305;28;20022;-62
2024/01/09 03:33:17;;;;;;;23.38;12.52;;;-8.30;99.90;;;;;;5024476;28;20030;-61
2024/01/09 03:35:43;;;;;;;24.85;13.65;;;-8.30;99.90;;;;;;5026477;28;20037;-62
2024/01/09 03:38:08;;;;;;;26.98;11.80;;;-8.30;99.90;;;;;;5029509;28;20030;-63
2024/01/09 03:40:36;;;;;;;23.70;12.60;;;-8.20;99.90;;;;;;5021912;28;20070;-63
2024/01/09 03:43:02;;;;;;;26.38;13.00;;;-8.20;99.90;;;;;;5021947;28;20030;-62
2024/01/09 03:45:29;;;;;;;28.63;14.30;;;-8.10;99.90;;;;;;5023290;28;20026;-62
2024/01/09 03:47:55;;;;;;;27.98;13.20;;;-8.10;99.90;;;;;;5021998;28;20445;-62
2024/01/09 03:50:20;;;;;;;26.83;12.77;;;-8.10;99.90;;;;;;5021607;28;20029;-63
2024/01/09 03:52:46;;;;;;;26.63;13.15;;;-8.00;99.90;;;;;;5019126;28;20027;-62
2024/01/09 03:55:12;;;;;;;21.02;11.43;;;-8.00;99.90;;;;;;5022297;28;20034;-61
2024/01/09 03:57:38;;;;;;;25.35;12.45;;;-8.00;99.90;;;;;;5021966;28;20018;-62
2024/01/09 04:00:04;;;;;;;23.88;12.60;;;-8.00;99.90;;;;;;5021764;28;20113;-63
2024/01/09 04:02:29;;;;;;;21.00;11.95;;;-7.90;99.90;;;;;;5021449;28;20026;-63
2024/01/09 04:04:55;;;;;;;24.95;13.27;;;-7.90;99.90;;;;;;5021981;28;20081;-63
2024/01/09 04:07:21;;;;;;;18.40;10.73;;;-8.00;99.90;;;;;;5020442;28;20017;-62
2024/01/09 04:09:46;;;;;;;20.45;10.68;;;-8.00;99.90;;;;;;5020831;28;20030;-62
2024/01/09 04:12:12;;;;;;;22.27;12.50;;;-8.10;99.90;;;;;;5021023;28;20044;-62
2024/01/09 04:14:37;;;;;;;24.10;12.02;;;-8.10;99.90;;;;;;5022267;28;20029;-62
2024/01/09 04:17:03;;;;;;;25.73;12.65;;;-8.00;99.90;;;;;;5024598;28;20108;-62
2024/01/09 04:19:29;;;;;;;16.38;10.80;;;-8.00;99.90;;;;;;5020648;28;20030;-63
2024/01/09 04:21:54;;;;;;;23.55;11.75;;;-7.90;99.90;;;;;;5021529;28;20517;-61
2024/01/09 04:24:20;;;;;;;18.13;11.20;;;-7.80;99.90;;;;;;5020483;28;20085;-61
2024/01/09 04:26:46;;;;;;;19.80;10.98;;;-7.70;99.90;;;;;;5021745;28;20025;-62
2024/01/09 04:29:11;;;;;;;25.00;12.70;;;-7.70;99.90;;;;;;5021064;28;20028;-61
2024/01/09 04:31:37;;;;;;;25.35;10.50;;;-7.60;99.90;;;;;;5021415;28;20029;-60
2024/01/09 04:34:02;;;;;;;22.02;11.48;;;-7.60;99.90;;;;;;5019689;28;20021;-61
2024/01/09 04:36:28;;;;;;;16.33;8.05;;;-7.60;99.90;;;;;;5019410;28;20030;-60
2024/01/09 04:38:54;;;;;;;20.02;11.07;;;-7.60;99.90;;;;;;5016472;28;20041;-60
2024/01/09 04:41:19;;;;;;;26.40;11.50;;;-7.40;99.90;;;;;;5019979;28;20116;-60
2024/01/09 04:43:46;;;;;;;23.95;10.82;;;-7.40;99.90;;;;;;5020684;28;20040;-61
2024/01/09 04:46:12;;;;;;;25.27;11.80;;;-7.40;99.90;;;;;;5020733;28;20545;-60
2024/01/09 04:48:37;;;;;;;24.83;12.27;;;-7.40;99.90;;;;;;5021729;28;20124;-62
2024/01/09 04:51:03;;;;;;;21.08;11.55;;;-7.50;99.90;;;;;;5018918;28;20425;-62
2024/01/09 04:53:29;;;;;;;19.60;11.15;;;-7.50;99.90;;;;;;5021019;28;20029;-62
2024/01/09 04:55:55;;;;;;;20.60;10.88;;;-7.50;99.90;;;;;;5022744;28;20072;-61
2024/01/09 04:58:20;;;;;;;25.30;11.32;;;-7.60;99.90;;;;;;5020393;28;20040;-60
2024/01/09 05:00:47;;;;;;;21.88;11.07;;;-7.60;99.90;;;;;;5019379;28;20529;-60
2024/01/09 05:03:13;;;;;;;16.48;9.63;;;-7.50;99.90;;;;;;5021032;28;20052;-62
2024/01/09 05:05:39;;;;;;;23.90;11.15;;;-7.50;99.90;;;;;;5021773;28;20071;-61
2024/01/09 05:08:05;;;;;;;20.33;11.00;;;-7.40;99.90;;;;;;5019171;28;20030;-61
2024/01/09 05:10:31;;;;;;;22.48;9.88;;;-7.40;99.90;;;;;;5020587;28;20386;-61
2024/01/09 05:12:57;;;;;;;19.85;10.65;;;-7.50;99.90;;;;;;5023624;28;20041;-60
2024/01/09 05:15:23;;;;;;;16.92;9.63;;;-7.60;99.90;;;;;;5018290;28;20525;-60
2024/01/09 05:17:48;;;;;;;19.45;10.20;;;-7.60;99.90;;;;;;5017968;28;20034;-61
2024/01/09 05:20:14;;;;;;;18.17;9.68;;;-7.70;99.90;;;;;;5022097;28;20029;-61
2024/01/09 05:22:39;;;;;;;15.98;9.45;;;-7.70;99.90;;;;;;5022830;28;20042;-62
2024/01/09 05:25:07;;;;;;;18.58;10.30;;;-7.70;99.90;;;;;;5018907;28;20490;-61
2024/01/09 05:27:33;;;;;;;14.13;9.65;;;-7.70;99.90;;;;;;5019758;28;20116;-61
2024/01/09 05:29:58;;;;;;;19.50;10.07;;;-7.70;99.90;;;;;;5018398;28;20622;-62
2024/01/09 05:32:24;;;;;;;14.90;8.63;;;-7.60;99.90;;;;;;5019550;28;20521;-61
2024/01/09 05:34:50;;;;;;;13.65;8.75;;;-7.60;99.90;;;;;;5018379;28;20884;-62
2024/01/09 05:37:16;;;;;;;18.70;9.60;;;-7.60;99.90;;;;;;5018341;28;20576;-62
2024/01/09 05:39:45;;;;;;;17.02;9.43;;;-7.50;99.90;;;;;;5019094;28;20029;-62
2024/01/09 05:42:11;;;;;;;21.05;9.73;;;-7.40;99.90;;;;;;5019710;28;20437;-64
2024/01/09 05:44:37;;;;;;;19.25;9.18;;;-7.30;99.90;;;;;;5018490;28;20084;-61
2024/01/09 05:47:03;;;;;;;17.70;8.50;;;-7.20;99.90;;;;;;5018760;28;20025;-62
2024/01/09 05:49:29;;;;;;;19.48;9.38;;;-7.10;99.90;;;;;;5015379;28;20022;-63
2024/01/09 05:51:54;;;;;;;17.10;9.55;;;-7.00;99.90;;;;;;5018782;28;20551;-63
2024/01/09 05:54:20;;;;;;;16.60;9.32;;;-7.00;99.90;;;;;;5018828;28;20041;-62
2024/01/09 05:56:46;;;;;;;18.38;9.32;;;-6.90;99.90;;;;;;5019503;28;20084;-63
2024/01/09 05:59:11;;;;;;;15.10;9.75;;;-7.00;99.90;;;;;;5021718;28;20036;-63
2024/01/09 06:01:37;;;;;;;15.70;9.30;;;-7.10;99.90;;;;;;5019963;28;20026;-61
2024/01/09 06:04:03;;;;;;;14.68;9.77;;;-7.10;99.90;;;;;;5018682;28;20104;-62
2024/01/09 06:06:29;;;;;;;24.60;9.93;;;-7.00;99.90;;;;;;5021027;28;20105;-60
2024/01/09 06:08:55;;;;;;;18.58;9.63;;;-7.00;99.90;;;;;;5017026;28;20060;-62
2024/01/09 06:11:21;;;;;;;18.02;9.93;;;-7.00;99.90;;;;;;5019369;28;20041;-62
2024/01/09 06:13:46;;;;;;;17.33;10.45;;;-7.00;99.90;;;;;;5017285;28;20050;-60
2024/01/09 06:16:12;;;;;;;20.33;10.32;;;-7.10;99.90;;;;;;5019153;28;20401;-61
2024/01/09 06:18:38;;;;;;;18.23;9.27;;;-7.20;99.90;;;;;;5019856;28;20025;-61
2024/01/09 06:21:04;;;;;;;15.55;9.00;;;-7.30;99.90;;;;;;5018040;28;20440;-62
2024/01/09 06:23:29;;;;;;;21.63;10.45;;;-7.30;99.90;;;;;;5021024;28;20052;-63
2024/01/09 06:25:55;;;;;;;18.20;9.05;;;-7.40;99.90;;;;;;5017504;28;20026;-62
2024/01/09 06:28:20;;;;;;;14.77;8.50;;;-7.50;99.90;;;;;;5017469;28;20372;-62
2024/01/09 06:30:46;;;;;;;16.50;9.45;;;-7.40;99.90;;;;;;5019854;28;20165;-61
2024/01/09 06:33:12;;;;;;;15.55;9.98;;;-7.40;99.90;;;;;;5022914;28;20038;-63
2024/01/09 06:35:37;;;;;;;16.27;9.50;;;-7.50;99.90;;;;;;5016334;28;20025;-63
2024/01/09 06:38:03;;;;;;;15.80;9.20;;;-7.60;99.90;;;;;;5018993;28;20037;-61
2024/01/09 06:40:29;;;;;;;15.90;9.90;;;-7.70;99.90;;;;;;5019375;28;20060;-62
2024/01/09 06:42:55;;;;;;;16.65;8.13;;;-7.70;99.90;;;;;;5020581;28;20397;-61
2024/01/09 06:45:21;;;;;;;19.15;10.38;;;-7.80;99.90;;;;;;5022039;28;20022;-61
2024/01/09 06:47:46;;;;;;;19.63;9.85;;;-7.90;99.90;;;;;;5019618;28;20039;-61
2024/01/09 06:50:12;;;;;;;16.27;10.35;;;-8.00;99.90;;;;;;5018282;28;20036;-62
2024/01/09 06:52:38;;;;;;;19.33;9.70;;;-8.00;99.90;;;;;;5021487;28;20405;-62
2024/01/09 06:55:04;;;;;;;18.33;11.38;;;-8.00;99.90;;;;;;5019957;28;20394;-61
2024/01/09 06:57:30;;;;;;;17.15;10.23;;;-8.10;99.90;;;;;;5018887;28;20022;-63
2024/01/09 06:59:56;;;;;;;15.77;9.13;;;-8.10;99.90;;;;;;5022057;28;20037;-63
2024/01/09 07:02:21;;;;;;;16.85;9.38;;;-8.10;99.90;;;;;;5019484;28;20075;-63
2024/01/09 07:04:47;;;;;;;17.77;10.68;;;-8.10;99.90;;;;;;5021585;28;20042;-62
2024/01/09 07:07:13;;;;;;;15.95;9.45;;;-8.10;99.90;;;;;;5019621;28;20489;-62
2024/01/09 07:09:40;;;;;;;16.83;8.95;;;-7.90;99.90;;;;;;5021614;28;20088;-62
2024/01/09 07:12:09;;;;;;;17.35;8.70;;;-7.60;99.90;;;;;;5020454;28;20028;-62
2024/01/09 07:14:35;;;;;;;17.42;9.20;;;-7.30;99.90;;;;;;5022696;28;20029;-62
2024/01/09 07:17:03;;;;;;;21.85;8.93;;;-7.20;99.90;;;;;;5026177;28;20120;-63
2024/01/09 07:19:28;;;;;;;13.48;8.32;;;-7.00;99.90;;;;;;5025293;28;20037;-59
2024/01/09 07:21:54;;;;;;;22.90;10.35;;;-7.00;99.90;;;;;;5026858;28;20753;-60
2024/01/09 07:24:20;;;;;;;19.17;9.50;;;-6.90;99.90;;;;;;5024880;28;20079;-62
2024/01/09 07:26:45;;;;;;;19.55;10.57;;;-6.90;99.90;;;;;;5025466;28;20045;-62
2024/01/09 07:29:16;;;;;;;15.23;9.38;;;-6.80;99.90;;;;;;5026788;28;20083;-61
2024/01/09 07:31:45;;;;;;;21.08;10.93;;;-6.80;99.90;;;;;;5023577;28;20032;-62
2024/01/09 07:34:10;;;;;;;15.07;9.23;;;-6.80;99.90;;;;;;5027905;28;20080;-61
2024/01/09 07:36:36;;;;;;;20.30;10.02;;;-6.90;99.90;;;;;;5025226;28;20018;-61
2024/01/09 07:39:02;;;;;;;18.88;9.55;;;-6.90;99.90;;;;;;5024721;28;20030;-62
2024/01/09 07:41:28;;;;;;;17.38;9.93;;;-6.90;99.90;;;;;;5020911;28;20034;-61
2024/01/09 07:43:53;;;;;;;19.33;9.60;;;-6.90;99.90;;;;;;5022296;28;20036;-60
2024/01/09 07:46:19;;;;;;;21.42;10.93;;;-6.90;99.90;;;;;;5022928;28;20045;-61
2024/01/09 07:48:44;;;;;;;22.85;9.75;;;-6.80;99.90;;;;;;5023270;28;20025;-62
2024/01/09 07:51:10;;;;;;;23.33;12.50;;;-6.80;99.90;;;;;;5022610;28;20438;-61
2024/01/09 07:53:36;;;;;;;19.33;9.88;;;-6.80;99.90;;;;;;5023920;28;20034;-62
2024/01/09 07:56:02;;;;;;;21.52;10.20;;;-6.80;99.90;;;;;;5021475;28;20045;-61
2024/01/09 07:58:27;;;;;;;22.17;10.70;;;-6.80;99.90;;;;;;5019756;28;20045;-59
2024/01/09 08:00:56;;;;;;;16.65;8.95;;;-6.70;99.90;;;;;;5019577;28;20033;-60
2024/01/09 08:03:21;;;;;;;31.63;11.05;;;-6.70;99.90;;;;;;5022345;28;20037;-60
2024/01/09 08:05:47;;;;;;;23.35;10.07;;;-6.60;99.90;;;;;;5019780;28;20406;-61
2024/01/09 08:08:12;;;;;;;21.08;10.93;;;-6.50;99.90;;;;;;5024126;28;20038;-61
2024/01/09 08:10:38;;;;;;;26.08;10.88;;;-6.50;99.90;;;;;;5024136;28;20182;-62
2024/01/09 08:13:04;;;;;;;21.90;11.55;;;-6.50;99.90;;;;;;5021814;28;20036;-63
2024/01/09 08:15:29;;;;;;;24.58;11.75;;;-6.40;99.90;;;;;;5021371;28;20531;-60
2024/01/09 08:17:55;;;;;;;17.73;9.43;;;-6.40;99.90;;;;;;5022333;28;20039;-61
2024/01/09 08:20:21;;;;;;;19.80;11.05;;;-6.40;99.90;;;;;;5020369;28;20072;-61
2024/01/09 08:22:48;;;;;;;25.08;11.00;;;-6.30;99.90;;;;;;5022849;28;20056;-62
2024/01/09 08:25:14;;;;;;;22.70;11.30;;;-6.30;99.90;;;;;;5022312;28;20838;-62
2024/01/09 08:27:40;;;;;;;21.77;10.73;;;-6.30;99.90;;;;;;5021501;28;20038;-61
2024/01/09 08:30:08;;;;;;;24.30;10.20;;;-6.20;99.90;;;;;;5023143;28;20033;-62
2024/01/09 08:32:33;;;;;;;16.77;9.43;;;-6.20;99.90;;;;;;5025373;28;20498;-62
2024/01/09 08:34:59;;;;;;;19.90;9.20;;;-6.20;99.90;;;;;;5021843;28;20279;-62
2024/01/09 08:37:25;;;;;;;20.33;10.10;;;-6.10;99.90;;;;;;5022791;28;20048;-60
2024/01/09 08:39:50;;;;;;;23.85;11.57;;;-6.00;99.90;;;;;;5021609;28;20180;-60
2024/01/09 08:42:16;;;;;;;20.48;10.30;;;-6.00;99.90;;;;;;5018117;28;20512;-61
2024/01/09 08:44:41;;;;;;;31.83;12.05;;;-5.90;99.90;;;;;;5023327;28;20030;-62
2024/01/09 08:47:07;;;;;;;22.70;11.20;;;-5.90;99.90;;;;;;5023054;28;20029;-61
2024/01/09 08:49:33;;;;;;;15.48;9.90;;;-5.80;99.90;;;;;;5022056;28;20394;-61
2024/01/09 08:51:58;;;;;;;22.95;10.30;;;-5.80;99.90;;;;;;5022227;28;20053;-61
2024/01/09 08:54:24;;;;;;;26.83;11.02;;;-5.70;99.90;;;;;;5018707;28;20115;-62
2024/01/09 08:56:50;;;;;;;16.70;9.85;;;-5.60;99.90;;;;;;5020543;28;20168;-59
2024/01/09 08:59:15;;;;;;;18.35;9.18;;;-5.60;99.90;;;;;;5021831;28;20128;-61
2024/01/09 09:01:41;;;;;;;13.85;8.98;;;-5.50;99.90;;;;;;5020015;28;20542;-61
2024/01/09 09:04:06;;;;;;;14.00;8.90;;;-5.50;99.90;;;;;;5020968;28;20026;-62
2024/01/09 09:06:32;;;;;;;15.55;9.02;;;-5.40;99.90;;;;;;5017728;28;20030;-61
2024/01/09 09:08:58;;;;;;;24.40;11.48;;;-5.30;99.90;;;;;;5020667;28;20033;-60
2024/01/09 09:11:23;;;;;;;18.20;9.35;;;-5.30;99.90;;;;;;5020357;28;20026;-61
2024/01/09 09:13:49;;;;;;;17.33;7.35;;;-5.20;99.90;;;;;;5019931;28;20045;-62
2024/01/09 09:16:15;;;;;;;17.77;9.10;;;-5.10;99.90;;;;;;5020677;28;20052;-62
2024/01/09 09:18:41;;;;;;;11.40;7.55;;;-4.90;99.90;;;;;;5018583;28;20103;-63
2024/01/09 09:21:07;;;;;;;15.20;9.15;;;-4.70;99.90;;;;;;5019361;28;20117;-62
2024/01/09 09:23:33;;;;;;;17.95;10.38;;;-4.10;99.90;;;;;;5019970;28;20121;-63
2024/01/09 09:25:59;;;;;;;14.77;9.13;;;-3.30;94.20;;;;;;5018178;28;20037;-61
2024/01/09 09:28:24;;;;;;;15.52;9.98;;;-2.40;93.60;;;;;;5020377;28;20137;-62
2024/01/09 09:30:50;;;;;;;16.80;9.18;;;-1.50;88.00;;;;;;5018111;28;20129;-62
2024/01/09 09:33:16;;;;;;;16.45;8.52;;;-0.50;83.10;;;;;;5019882;28;20540;-62
2024/01/09 09:35:42;;;;;;;15.02;8.40;;;0.20;71.20;;;;;;5018403;28;20032;-62
2024/01/09 09:38:07;;;;;;;14.35;8.88;;;0.70;68.20;;;;;;5016796;28;20036;-62
2024/01/09 09:40:33;;;;;;;12.50;8.93;;;1.00;64.30;;;;;;5019340;28;20447;-62
2024/01/09 09:43:02;;;;;;;12.02;8.73;;;1.40;66.60;;;;;;5019100;28;20030;-62
2024/01/09 09:45:30;;;;;;;13.00;9.60;;;2.00;65.90;;;;;;5017368;28;20469;-61
2024/01/09 09:47:56;;;;;;;13.38;9.13;;;2.70;60.20;;;;;;5018767;28;20038;-63
2024/01/09 09:50:22;;;;;;;13.55;9.80;;;2.80;58.30;;;;;;5020419;28;20120;-62
2024/01/09 09:52:49;;;;;;;17.45;9.85;;;2.70;55.90;;;;;;5022997;28;20038;-62
2024/01/09 09:55:16;;;;;;;15.35;9.65;;;2.40;56.20;;;;;;5021686;28;20029;-61
2024/01/09 09:57:42;;;;;;;14.05;9.25;;;2.30;57.10;;;;;;5019675;28;20041;-62
2024/01/09 10:00:08;;;;;;;13.00;9.05;;;2.00;55.70;;;;;;5017026;28;20522;-61
2024/01/09 10:02:37;;;;;;;13.80;10.00;;;1.90;57.90;;;;;;5018613;28;20026;-61
2024/01/09 10:05:12;;;;;;;13.05;9.15;;;1.80;57.30;;;;;;5017778;28;20037;-62
2024/01/09 10:07:39;;;;;;;16.20;9.27;;;1.80;61.10;;;;;;5019785;28;20017;-62
2024/01/09 10:10:08;;;;;;;12.70;9.00;;;2.00;57.00;;;;;;5020324;28;20041;-63
2024/01/09 10:12:34;;;;;;;22.00;12.95;;;1.90;58.20;;;;;;5017978;28;20574;-61
2024/01/09 10:15:07;;;;;;;11.82;8.30;;;2.00;57.20;;;;;;5017064;28;20040;-62
2024/01/09 10:17:34;;;;;;;13.23;10.32;;;2.00;58.30;;;;;;5016884;28;20034;-61
2024/01/09 10:20:00;;;;;;;15.10;9.13;;;2.00;59.30;;;;;;5016382;28;20458;-61
2024/01/09 10:22:29;;;;;;;13.95;9.25;;;2.20;58.40;;;;;;5014985;28;20505;-61
2024/01/09 10:24:56;;;;;;;18.08;8.98;;;2.20;57.20;;;;;;5017383;28;20453;-62
2024/01/09 10:27:22;;;;;;;8.98;6.75;;;2.20;57.30;;;;;;5019480;28;20068;-61
2024/01/09 10:29:47;;;;;;;10.65;7.53;;;2.00;55.50;;;;;;5018733;28;20423;-60
2024/01/09 10:32:14;;;;;;;12.77;7.68;;;1.70;55.80;;;;;;5021545;28;20076;-61
2024/01/09 10:34:39;;;;;;;14.52;7.50;;;1.40;56.80;;;;;;5023238;28;20433;-61
2024/01/09 10:37:08;;;;;;;9.98;7.47;;;1.20;57.00;;;;;;5022051;28;20018;-64
2024/01/09 10:39:34;;;;;;;14.80;7.43;;;0.90;58.20;;;;;;5019764;28;20038;-62
2024/01/09 10:42:07;;;;;;;7.88;5.55;;;0.50;58.60;;;;;;5017814;28;20037;-62
2024/01/09 10:44:33;;;;;;;9.80;5.57;;;0.30;58.70;;;;;;5016359;28;20026;-61
2024/01/09 10:47:00;;;;;;;16.05;6.57;;;0.10;59.10;;;;;;5018951;28;20041;-62
2024/01/09 10:49:27;;;;;;;16.92;8.70;;;-0.10;60.00;;;;;;5022026;28;20053;-61
2024/01/09 10:51:55;;;;;;;12.68;7.13;;;-0.30;60.90;;;;;;5020927;28;20084;-59
2024/01/09 10:54:21;;;;;;;11.10;7.18;;;-0.50;61.20;;;;;;5022842;28;20104;-60
2024/01/09 10:56:49;;;;;;;10.48;6.60;;;-0.60;62.00;;;;;;5023382;28;20141;-61
2024/01/09 10:59:16;;;;;;;11.77;7.45;;;-0.60;62.40;;;;;;5023898;28;20133;-61
2024/01/09 11:01:42;;;;;;;12.00;8.20;;;-0.60;62.90;;;;;;5023605;28;20506;-60
2024/01/09 11:04:08;;;;;;;12.60;8.75;;;-0.60;62.70;;;;;;5023446;28;20120;-61
2024/01/09 11:06:36;;;;;;;12.98;8.15;;;-0.50;62.90;;;;;;5022605;28;20030;-63
2024/01/09 11:09:04;;;;;;;13.85;7.65;;;-0.40;63.00;;;;;;5023453;28;20057;-63
2024/01/09 11:11:32;;;;;;;17.90;10.48;;;-0.30;62.50;;;;;;5022252;28;20022;-62
2024/01/09 11:14:03;;;;;;;10.43;7.25;;;-0.30;61.70;;;;;;5020904;28;20494;-62
2024/01/09 11:16:32;;;;;;;13.05;8.50;;;-0.30;62.40;;;;;;5022255;28;20029;-62
2024/01/09 11:18:58;;;;;;;15.10;7.63;;;-0.50;62.70;;;;;;5022551;28;20068;-62
2024/01/09 11:21:27;;;;;;;14.07;7.90;;;-0.50;64.00;;;;;;5025320;28;20148;-62
2024/01/09 11:23:55;;;;;;;12.90;8.73;;;-0.50;63.50;;;;;;5018885;28;20107;-62
2024/01/09 11:26:22;;;;;;;10.90;7.43;;;-0.50;62.40;;;;;;5019871;28;20030;-63
2024/01/09 11:28:48;;;;;;;14.40;8.32;;;-0.60;62.80;;;;;;5021712;28;20053;-61
2024/01/09 11:31:17;;;;;;;15.90;8.60;;;-0.70;63.40;;;;;;5022175;28;20045;-62
2024/01/09 11:33:42;;;;;;;13.93;8.25;;;-0.80;65.40;;;;;;5019971;28;20085;-62
2024/01/09 11:36:11;;;;;;;11.50;7.43;;;-0.90;65.50;;;;;;5021769;28;20478;-62
2024/01/09 11:38:37;;;;;;;12.13;7.47;;;-0.90;65.80;;;;;;5022651;28;20140;-62
2024/01/09 11:41:09;;;;;;;11.05;6.18;;;-1.00;65.60;;;;;;5018555;28;20058;-63
2024/01/09 11:44:00;;;;;;;13.23;8.25;;;-1.00;64.80;;;;;;5021048;28;20116;-63
2024/01/09 11:46:27;;;;;;;13.00;8.80;;;-1.00;65.30;;;;;;5020969;28;20472;-62
2024/01/09 11:48:54;;;;;;;13.18;7.82;;;-1.00;66.00;;;;;;5023213;28;20044;-63
2024/01/09 11:51:23;;;;;;;19.13;9.52;;;-1.00;66.30;;;;;;5025671;28;20371;-62
2024/01/09 11:53:49;;;;;;;24.15;12.07;;;-0.90;66.10;;;;;;5021158;28;20029;-61
2024/01/09 11:56:16;;;;;;;13.02;8.93;;;-0.80;67.40;;;;;;5020056;28;20040;-61
2024/01/09 11:58:49;;;;;;;11.98;7.50;;;-0.70;66.50;;;;;;5022785;28;20385;-63
2024/01/09 12:01:17;;;;;;;12.82;7.88;;;-0.50;67.00;;;;;;5018715;28;20439;-61
2024/01/09 12:03:52;;;;;;;11.38;7.53;;;-0.40;66.10;;;;;;5019847;28;20044;-65
2024/01/09 12:06:19;;;;;;;14.98;8.60;;;-0.30;65.90;;;;;;5023607;28;20443;-64
2024/01/09 12:08:45;;;;;;;16.88;7.80;;;-0.10;66.20;;;;;;5025151;28;20057;-63
2024/01/09 12:11:11;;;;;;;13.68;7.47;;;0.20;66.10;;;;;;5023093;28;20104;-62
2024/01/09 12:13:37;;;;;;;13.98;7.18;;;0.50;66.20;;;;;;5019335;28;20018;-63
2024/01/09 12:16:22;;;;;;;12.43;7.28;;;0.70;63.90;;;;;;5023285;28;20071;-61
2024/01/09 12:18:49;;;;;;;10.32;6.78;;;0.90;62.80;;;;;;5019754;28;20021;-62
2024/01/09 12:21:15;;;;;;;9.80;7.05;;;1.10;62.30;;;;;;5017019;28;20034;-62
2024/01/09 12:23:41;;;;;;;10.70;6.20;;;1.30;61.90;;;;;;5020074;28;20109;-62
2024/01/09 12:26:07;;;;;;;8.52;7.22;;;1.40;61.20;;;;;;5018972;28;20041;-62
2024/01/09 12:28:33;;;;;;;11.93;7.75;;;1.50;60.50;;;;;;5018704;28;20045;-62